Time;durP1;ratioP1;P1;durP2;ratioP2;P2;SDS_P1;SDS_P2;PMS_P1;PMS_P2;Temp;Humidity;BMP_temperature;BMP_pressure;BME280_temperature;BME280_humidity;BME280_pressure;Samples;Min_cycle;Max_cycle;Signal;HPM_P1;HPM_P2
2021/07/23 00:01:28;;;;;;;9.77;9.07;;;22.50;38.70;;;;;;4772758;29;20596;-79
2021/07/23 00:04:47;;;;;;;11.13;10.23;;;22.50;38.70;;;;;;4803113;29;20437;-78
2021/07/23 00:07:55;;;;;;;11.33;10.40;;;22.60;38.80;;;;;;4813494;29;20425;-79
2021/07/23 00:10:24;;;;;;;9.90;9.20;;;22.50;38.80;;;;;;4813659;29;20429;-78
2021/07/23 00:13:16;;;;;;;10.60;9.80;;;22.50;38.80;;;;;;4824550;29;20465;-78
2021/07/23 00:22:04;;;;;;;10.70;9.80;;;22.50;38.80;;;;;;4830189;29;20512;-80
2021/07/23 00:28:54;;;;;;;10.47;9.57;;;22.50;38.80;;;;;;4772580;30;20564;-78
2021/07/23 00:31:21;;;;;;;9.93;9.23;;;22.50;38.90;;;;;;4758314;30;20447;-79
2021/07/23 00:33:55;;;;;;;11.33;10.37;;;22.50;38.90;;;;;;4786737;30;20468;-78
2021/07/23 00:40:27;;;;;;;9.83;9.03;;;22.50;38.90;;;;;;4772542;30;20435;-78
2021/07/23 00:42:54;;;;;;;10.50;9.70;;;22.50;38.90;;;;;;4767692;29;20436;-78
2021/07/23 00:45:26;;;;;;;9.17;8.47;;;22.50;38.90;;;;;;4812451;29;20481;-79
2021/07/23 00:49:01;;;;;;;9.23;8.53;;;22.50;38.90;;;;;;4808178;29;20423;-78
2021/07/23 00:51:43;;;;;;;9.67;8.87;;;22.50;38.90;;;;;;4799224;29;20525;-79
2021/07/23 00:55:12;;;;;;;9.30;8.70;;;22.50;38.90;;;;;;4807728;29;20434;-79
2021/07/23 00:57:58;;;;;;;10.07;9.30;;;22.50;39.00;;;;;;4806310;29;20800;-78
2021/07/23 01:01:08;;;;;;;10.53;9.63;;;22.50;39.00;;;;;;4792748;29;20827;-79
2021/07/23 01:03:40;;;;;;;9.67;8.97;;;22.50;39.00;;;;;;4807165;29;20438;-78
2021/07/23 01:06:39;;;;;;;9.90;9.10;;;22.50;39.10;;;;;;4793606;29;20524;-79
2021/07/23 01:09:32;;;;;;;9.50;8.70;;;22.50;39.00;;;;;;4823613;29;20457;-79
2021/07/23 01:12:07;;;;;;;9.07;8.37;;;22.50;39.10;;;;;;4827134;29;20536;-79
2021/07/23 01:14:47;;;;;;;10.20;9.40;;;22.50;39.00;;;;;;4828792;29;20936;-79
2021/07/23 01:17:25;;;;;;;9.77;9.00;;;22.50;39.10;;;;;;4828704;29;20433;-79
2021/07/23 01:20:36;;;;;;;9.00;8.30;;;22.50;39.10;;;;;;4828674;29;20440;-78
2021/07/23 01:23:34;;;;;;;10.10;9.30;;;22.50;39.10;;;;;;4821646;29;20809;-79
2021/07/23 01:26:25;;;;;;;8.60;8.00;;;22.50;39.10;;;;;;4825875;29;20497;-80
2021/07/23 01:32:57;;;;;;;9.70;8.90;;;22.50;39.10;;;;;;4807943;29;20473;-79
2021/07/23 01:36:13;;;;;;;9.50;8.70;;;22.50;39.20;;;;;;4800116;29;20430;-79
2021/07/23 01:42:58;;;;;;;8.53;7.83;;;22.40;39.10;;;;;;4792609;29;20437;-79
2021/07/23 01:46:25;;;;;;;10.87;9.77;;;22.50;39.20;;;;;;4789512;29;20553;-79
2021/07/23 01:49:37;;;;;;;9.33;8.63;;;22.40;39.10;;;;;;4788799;29;20450;-79
2021/07/23 01:53:22;;;;;;;8.97;8.27;;;22.40;39.20;;;;;;4794651;29;20473;-79
2021/07/23 01:56:53;;;;;;;8.57;7.97;;;22.40;39.20;;;;;;4805816;29;20751;-80
2021/07/23 02:03:00;;;;;;;9.90;9.00;;;22.40;39.30;;;;;;4806691;29;20443;-80
2021/07/23 02:06:15;;;;;;;9.50;8.80;;;22.40;39.20;;;;;;4805937;29;21046;-79
2021/07/23 02:09:12;;;;;;;9.03;8.40;;;22.40;39.20;;;;;;4791109;29;20881;-79
2021/07/23 02:12:07;;;;;;;9.03;8.33;;;22.40;39.20;;;;;;4811626;29;20429;-80
2021/07/23 02:15:25;;;;;;;8.77;8.07;;;22.40;39.20;;;;;;4793453;29;20438;-79
2021/07/23 02:18:55;;;;;;;8.80;8.20;;;22.40;39.20;;;;;;4805191;29;20561;-80
2021/07/23 02:22:07;;;;;;;8.00;7.50;;;22.40;39.30;;;;;;4805020;29;20521;-79
2021/07/23 02:24:37;;;;;;;8.67;8.00;;;22.40;39.30;;;;;;4805089;29;20438;-79
2021/07/23 02:27:12;;;;;;;8.77;8.17;;;22.40;39.30;;;;;;4810222;29;20489;-79
2021/07/23 02:29:41;;;;;;;8.83;8.17;;;22.40;39.20;;;;;;4819951;29;20509;-80
2021/07/23 02:33:12;;;;;;;8.60;8.00;;;22.40;39.20;;;;;;4774018;30;20927;-80
2021/07/23 02:36:16;;;;;;;8.63;8.03;;;22.40;39.30;;;;;;4785244;29;20427;-80
2021/07/23 02:39:10;;;;;;;9.40;8.70;;;22.40;39.30;;;;;;4778981;30;20555;-79
2021/07/23 02:42:17;;;;;;;7.77;7.27;;;22.40;39.30;;;;;;4774290;30;20435;-80
2021/07/23 02:45:48;;;;;;;8.57;7.97;;;22.40;39.30;;;;;;4744508;30;20943;-79
2021/07/23 02:48:52;;;;;;;8.13;7.53;;;22.40;39.40;;;;;;4777482;30;20455;-79
2021/07/23 02:51:27;;;;;;;7.73;7.23;;;22.40;39.40;;;;;;4772762;30;20431;-79
2021/07/23 02:54:04;;;;;;;8.70;8.10;;;22.40;39.40;;;;;;4760608;30;20590;-79
2021/07/23 02:59:29;;;;;;;8.33;7.73;;;22.40;39.40;;;;;;4776053;30;20483;-79
2021/07/23 03:02:23;;;;;;;8.20;7.60;;;22.40;39.40;;;;;;4737795;29;20444;-81
2021/07/23 03:08:52;;;;;;;8.17;7.57;;;22.40;39.40;;;;;;4821100;29;20818;-81
2021/07/23 03:11:44;;;;;;;8.30;7.77;;;22.40;39.40;;;;;;4826348;29;20429;-80
2021/07/23 03:14:11;;;;;;;8.97;8.27;;;22.40;39.40;;;;;;4811590;29;20487;-80
2021/07/23 03:17:10;;;;;;;7.73;7.20;;;22.40;39.40;;;;;;4824700;29;20450;-79
2021/07/23 03:19:38;;;;;;;8.63;8.03;;;22.40;39.40;;;;;;4825375;29;20460;-78
2021/07/23 03:22:34;;;;;;;8.60;8.00;;;22.40;40.10;;;;;;4825539;29;20429;-78
2021/07/23 03:25:15;;;;;;;8.83;8.20;;;22.40;39.40;;;;;;4820419;29;20425;-80
2021/07/23 03:28:03;;;;;;;8.33;7.73;;;22.40;39.50;;;;;;4819008;29;20824;-79
2021/07/23 03:30:32;;;;;;;8.50;7.90;;;22.40;39.50;;;;;;4824291;29;20494;-79
2021/07/23 03:33:00;;;;;;;8.10;7.50;;;22.40;39.40;;;;;;4825638;29;20461;-79
2021/07/23 03:35:29;;;;;;;8.93;8.33;;;22.40;39.50;;;;;;4809839;29;20429;-79
2021/07/23 03:38:18;;;;;;;8.20;7.60;;;22.40;39.50;;;;;;4824644;29;20956;-79
2021/07/23 03:41:02;;;;;;;8.87;8.27;;;22.40;39.50;;;;;;4824633;29;20533;-79
2021/07/23 03:43:31;;;;;;;8.30;7.70;;;22.40;39.50;;;;;;4825764;29;20442;-78
2021/07/23 03:45:59;;;;;;;8.93;8.23;;;22.30;39.40;;;;;;4825969;29;20516;-79
2021/07/23 03:48:25;;;;;;;7.67;7.10;;;22.40;39.50;;;;;;4809428;29;20971;-78
2021/07/23 03:50:51;;;;;;;7.70;7.20;;;22.40;39.60;;;;;;4824912;29;20433;-79
2021/07/23 03:53:16;;;;;;;7.97;7.40;;;22.40;39.50;;;;;;4824903;29;20250;-79
2021/07/23 03:55:42;;;;;;;7.77;7.27;;;22.30;39.50;;;;;;4825662;29;20204;-79
2021/07/23 03:58:08;;;;;;;7.40;6.90;;;22.40;39.60;;;;;;4826059;29;20207;-79
2021/07/23 04:00:34;;;;;;;8.30;7.70;;;22.40;40.30;;;;;;4826444;29;20176;-80
2021/07/23 04:02:59;;;;;;;8.00;7.40;;;22.40;39.60;;;;;;4825421;29;20450;-79
2021/07/23 04:05:25;;;;;;;8.67;8.03;;;22.40;39.60;;;;;;4825083;29;20545;-79
2021/07/23 04:07:51;;;;;;;7.10;6.60;;;22.30;39.50;;;;;;4826221;29;20200;-79
2021/07/23 04:10:16;;;;;;;7.77;7.17;;;22.40;39.60;;;;;;4824832;29;20188;-79
2021/07/23 04:12:42;;;;;;;6.90;6.50;;;22.40;39.60;;;;;;4826354;29;20652;-79
2021/07/23 04:15:11;;;;;;;8.17;7.57;;;22.40;39.50;;;;;;4824654;29;20184;-79
2021/07/23 04:17:37;;;;;;;7.87;7.27;;;22.40;39.60;;;;;;4825076;29;20218;-80
2021/07/23 04:20:04;;;;;;;7.30;6.83;;;22.40;39.60;;;;;;4825889;29;20812;-79
2021/07/23 04:22:30;;;;;;;7.67;7.17;;;22.30;39.50;;;;;;4824636;29;20211;-79
2021/07/23 04:24:56;;;;;;;7.70;7.20;;;22.30;39.50;;;;;;4825593;29;20448;-80
2021/07/23 04:27:30;;;;;;;8.40;7.80;;;22.30;39.50;;;;;;4827393;29;20187;-80
2021/07/23 04:33:12;;;;;;;9.77;8.87;;;22.40;40.40;;;;;;4820556;29;20468;-81
2021/07/23 04:36:20;;;;;;;9.73;8.90;;;22.40;39.80;;;;;;4839463;29;20483;-81
2021/07/23 04:38:39;;;;;;;8.60;7.80;;;22.40;39.90;;;;;;4822524;29;20929;-81
2021/07/23 04:41:04;;;;;;;9.30;8.60;;;22.40;39.80;;;;;;4824749;29;20468;-80
2021/07/23 04:43:38;;;;;;;8.83;8.10;;;22.40;39.90;;;;;;4824850;29;20188;-80
2021/07/23 04:46:04;;;;;;;9.00;8.20;;;22.40;39.80;;;;;;4824160;29;20184;-80
2021/07/23 04:48:30;;;;;;;9.13;8.37;;;22.40;39.70;;;;;;4824892;29;20449;-80
2021/07/23 04:50:56;;;;;;;8.40;7.80;;;22.40;39.80;;;;;;4825519;29;20932;-81
2021/07/23 04:53:21;;;;;;;9.57;8.63;;;22.40;39.80;;;;;;4825708;29;20703;-81
2021/07/23 04:55:52;;;;;;;9.00;8.30;;;22.40;39.80;;;;;;4824378;29;20724;-80
2021/07/23 04:58:17;;;;;;;8.33;7.63;;;22.40;39.90;;;;;;4824488;29;20206;-80
2021/07/23 05:00:45;;;;;;;8.57;7.87;;;22.40;39.90;;;;;;4827095;29;20432;-80
2021/07/23 05:03:16;;;;;;;9.53;8.80;;;22.40;39.90;;;;;;4828789;29;20259;-80
2021/07/23 05:05:59;;;;;;;9.40;8.70;;;22.30;39.90;;;;;;4827301;29;20462;-81
2021/07/23 05:08:31;;;;;;;7.90;7.30;;;22.40;40.00;;;;;;4826482;29;20471;-81
2021/07/23 05:10:57;;;;;;;9.03;8.23;;;22.40;40.00;;;;;;4827242;29;20429;-80
2021/07/23 05:14:28;;;;;;;8.70;8.00;;;22.30;39.80;;;;;;4827493;29;20467;-80
2021/07/23 05:17:24;;;;;;;;;;;;;;;;;;;;;
2021/07/23 05:20:29;;;;;;;8.47;7.87;;;22.40;40.10;;;;;;4803575;29;20437;-80
2021/07/23 05:29:47;;;;;;;10.10;9.20;;;22.40;40.00;;;;;;4779420;29;20457;-80
2021/07/23 05:32:38;;;;;;;8.70;7.80;;;22.40;40.10;;;;;;4776448;29;20477;-80
2021/07/23 05:35:25;;;;;;;9.70;8.90;;;22.40;40.20;;;;;;4776948;29;20794;-80
2021/07/23 05:38:03;;;;;;;10.50;9.40;;;22.40;40.20;;;;;;4791445;29;20876;-79
2021/07/23 05:40:29;;;;;;;11.20;10.30;;;22.40;40.20;;;;;;4812677;29;21008;-81
2021/07/23 05:43:13;;;;;;;9.67;8.97;;;22.40;40.10;;;;;;4825972;29;20429;-79
2021/07/23 05:45:50;;;;;;;11.33;10.20;;;22.40;40.20;;;;;;4825616;29;20184;-79
2021/07/23 05:48:15;;;;;;;9.83;8.93;;;22.40;40.10;;;;;;4825731;29;20457;-78
2021/07/23 05:50:41;;;;;;;9.47;8.77;;;22.40;40.10;;;;;;4826567;29;20587;-80
2021/07/23 05:53:06;;;;;;;11.17;10.07;;;22.40;40.10;;;;;;4825683;29;20223;-79
2021/07/23 05:55:32;;;;;;;9.60;8.80;;;22.40;40.10;;;;;;4825035;29;20180;-79
2021/07/23 05:57:57;;;;;;;9.57;8.87;;;22.40;40.20;;;;;;4827379;29;20296;-80
2021/07/23 06:00:25;;;;;;;10.20;9.50;;;22.40;40.10;;;;;;4826587;29;20233;-81
2021/07/23 06:02:51;;;;;;;12.00;9.97;;;22.40;40.10;;;;;;4827812;29;20187;-79
2021/07/23 06:05:17;;;;;;;13.23;10.23;;;22.40;39.80;;;;;;4828119;29;20818;-81
2021/07/23 06:07:42;;;;;;;13.73;11.53;;;22.40;39.90;;;;;;4828451;29;20176;-80
2021/07/23 06:10:08;;;;;;;13.33;11.93;;;22.30;39.70;;;;;;4828161;29;20204;-79
2021/07/23 06:12:49;;;;;;;15.80;12.13;;;22.30;39.10;;;;;;4828481;29;20679;-80
2021/07/23 06:15:15;;;;;;;12.13;10.93;;;22.30;40.30;;;;;;4827592;29;20940;-80
2021/07/23 06:17:40;;;;;;;10.77;9.87;;;22.30;39.40;;;;;;4827051;29;20425;-80
2021/07/23 06:20:07;;;;;;;14.17;11.60;;;22.30;39.40;;;;;;4827340;29;20235;-79
2021/07/23 06:22:32;;;;;;;11.03;9.90;;;22.30;39.70;;;;;;4827559;29;20184;-79
2021/07/23 06:24:58;;;;;;;12.20;10.80;;;22.30;39.20;;;;;;4826605;29;20425;-80
2021/07/23 06:27:25;;;;;;;11.70;10.57;;;22.30;39.10;;;;;;4827939;29;20204;-79
2021/07/23 06:29:53;;;;;;;11.80;10.53;;;22.30;38.90;;;;;;4827456;29;20438;-82
2021/07/23 06:32:20;;;;;;;13.23;11.07;;;22.20;38.80;;;;;;4826597;29;20504;-83
2021/07/23 06:34:46;;;;;;;11.80;9.80;;;22.20;39.40;;;;;;4827687;29;20861;-82
2021/07/23 06:37:11;;;;;;;11.40;9.73;;;22.20;39.20;;;;;;4827931;29;20929;-82
2021/07/23 06:39:38;;;;;;;13.67;11.33;;;22.20;39.10;;;;;;4829185;29;20541;-81
2021/07/23 06:42:04;;;;;;;11.60;10.50;;;22.20;38.90;;;;;;4828283;29;20430;-81
2021/07/23 06:44:30;;;;;;;11.40;10.33;;;22.20;39.10;;;;;;4828703;29;20279;-81
2021/07/23 06:46:55;;;;;;;11.20;10.10;;;22.20;38.90;;;;;;4828209;29;20180;-79
2021/07/23 06:49:21;;;;;;;12.53;10.90;;;22.30;39.10;;;;;;4827691;29;20455;-81
2021/07/23 06:51:56;;;;;;;12.27;11.07;;;22.20;38.60;;;;;;4827426;29;20192;-81
2021/07/23 06:54:21;;;;;;;11.47;10.33;;;22.20;38.60;;;;;;4826903;29;20184;-81
2021/07/23 06:56:49;;;;;;;11.90;10.80;;;22.20;38.80;;;;;;4826912;29;21035;-80
2021/07/23 06:59:24;;;;;;;12.20;11.03;;;22.10;38.70;;;;;;4827809;29;20200;-81
2021/07/23 07:02:00;;;;;;;11.47;10.33;;;22.20;39.00;;;;;;4827543;29;20417;-80
2021/07/23 07:04:26;;;;;;;12.40;11.27;;;22.20;38.60;;;;;;4828080;29;20424;-81
2021/07/23 07:07:11;;;;;;;12.40;10.93;;;22.30;38.70;;;;;;4826666;29;20433;-81
2021/07/23 07:09:39;;;;;;;13.60;11.43;;;22.20;38.30;;;;;;4827886;29;20445;-83
2021/07/23 07:12:09;;;;;;;14.90;12.03;;;22.20;38.40;;;;;;4827438;29;20599;-82
2021/07/23 07:15:27;;;;;;;11.80;10.67;;;22.20;38.50;;;;;;4827445;29;20441;-82
2021/07/23 11:01:20;;;;;;;13.70;12.40;;;23.00;38.70;;;;;;4829603;29;20507;-80
2021/07/23 11:04:32;;;;;;;14.10;13.10;;;23.00;38.90;;;;;;4773046;29;20412;-81
2021/07/23 11:13:35;;;;;;;15.27;13.90;;;23.00;39.00;;;;;;4757136;30;20499;-83
2021/07/23 11:16:53;;;;;;;14.10;12.90;;;23.00;38.00;;;;;;4726446;30;20881;-83
2021/07/23 11:40:44;;;;;;;14.00;12.90;;;23.00;38.00;;;;;;4789209;29;20414;-82
2021/07/23 11:50:50;;;;;;;14.87;13.30;;;23.10;38.30;;;;;;4753065;30;20831;-83
2021/07/23 11:53:58;;;;;;;14.07;12.97;;;23.10;38.30;;;;;;4751566;30;20473;-83
2021/07/23 11:57:14;;;;;;;15.73;14.13;;;23.10;38.00;;;;;;4752289;30;20425;-83
2021/07/23 13:46:22;;;;;;;13.53;12.47;;;23.40;33.70;;;;;;4827597;29;20491;-80
2021/07/23 13:50:09;;;;;;;14.73;13.40;;;23.40;34.00;;;;;;4828077;29;20452;-81
2021/07/23 13:53:19;;;;;;;13.40;12.30;;;23.40;34.10;;;;;;4792093;29;20461;-80
2021/07/23 13:56:23;;;;;;;13.10;12.10;;;23.40;34.30;;;;;;4770023;29;20481;-81
2021/07/23 13:59:31;;;;;;;14.23;12.93;;;23.40;34.50;;;;;;4747910;30;20464;-81
2021/07/23 14:02:42;;;;;;;13.20;12.10;;;23.40;35.30;;;;;;4796427;29;20492;-80
2021/07/23 14:05:50;;;;;;;12.70;11.60;;;23.40;34.30;;;;;;4750933;30;20436;-81
2021/07/23 14:09:12;;;;;;;13.10;11.90;;;23.40;34.60;;;;;;4771822;30;20986;-80
2021/07/23 14:12:19;;;;;;;12.27;11.27;;;23.40;34.70;;;;;;4758348;30;20439;-81
2021/07/23 14:15:35;;;;;;;15.03;13.53;;;23.40;34.30;;;;;;4790775;29;20929;-80
2021/07/23 14:18:40;;;;;;;16.17;14.60;;;23.40;34.50;;;;;;4796230;29;20478;-82
2021/07/23 14:21:41;;;;;;;13.80;12.40;;;23.40;35.20;;;;;;4825910;29;20633;-81
2021/07/23 14:24:43;;;;;;;14.70;13.30;;;23.40;35.00;;;;;;4823300;29;20538;-82
2021/07/23 14:27:52;;;;;;;13.97;12.70;;;23.30;34.90;;;;;;4823198;29;20433;-81
2021/07/23 14:38:25;;;;;;;14.17;12.83;;;23.40;34.00;;;;;;4754556;30;20467;-81
2021/07/23 14:47:59;;;;;;;13.27;11.93;;;23.40;33.60;;;;;;4762204;30;20455;-81
2021/07/23 14:51:01;;;;;;;12.97;11.87;;;23.40;33.30;;;;;;4768047;30;20436;-80
2021/07/23 14:54:23;;;;;;;12.87;11.77;;;23.50;33.00;;;;;;4774841;29;20475;-82
2021/07/23 15:10:05;;;;;;;14.03;12.70;;;23.30;33.60;;;;;;4770726;30;20466;-82
2021/07/23 15:20:18;;;;;;;13.27;12.07;;;23.30;34.30;;;;;;4700183;30;20436;-81
2021/07/23 15:22:48;;;;;;;13.77;12.40;;;23.20;34.60;;;;;;4657331;30;20431;-81
2021/07/23 15:26:22;;;;;;;13.00;11.90;;;23.20;34.30;;;;;;4704331;30;20451;-80
2021/07/23 15:36:50;;;;;;;13.50;12.00;;;23.40;31.80;;;;;;4665161;30;20520;-82
2021/07/23 15:40:30;;;;;;;13.17;12.03;;;23.40;32.80;;;;;;4633053;30;20436;-81
2021/07/23 15:44:04;;;;;;;12.90;11.80;;;23.40;32.80;;;;;;4665134;30;20421;-82
2021/07/23 15:47:41;;;;;;;13.27;12.17;;;23.40;33.20;;;;;;4666824;30;21007;-83
2021/07/23 15:51:02;;;;;;;13.83;12.63;;;23.40;32.90;;;;;;4664839;30;20991;-82
2021/07/23 15:54:43;;;;;;;14.53;13.23;;;23.40;32.80;;;;;;4686743;30;20487;-84
2021/07/23 15:58:15;;;;;;;12.07;10.97;;;23.40;32.80;;;;;;4717352;30;20419;-82
2021/07/23 16:59:39;;;;;;;61.10;56.50;;;23.50;32.90;;;;;;4771604;30;20483;-82
2021/07/23 17:22:49;;;;;;;116.67;108.30;;;23.60;33.40;;;;;;4920361;23;20491;-82
2021/07/23 17:25:54;;;;;;;132.67;123.77;;;23.50;33.90;;;;;;4841723;29;20461;-83
2021/07/23 17:28:40;;;;;;;83.47;77.27;;;23.60;33.90;;;;;;4824614;29;20457;-82
2021/07/23 17:38:15;;;;;;;51.77;47.77;;;23.60;33.10;;;;;;4807248;29;20467;-83
2021/07/23 17:41:12;;;;;;;53.87;49.80;;;23.60;33.00;;;;;;4808246;29;20426;-82
2021/07/23 17:54:43;;;;;;;39.93;36.90;;;23.60;33.00;;;;;;4807214;29;20481;-84
2021/07/23 17:58:26;;;;;;;32.53;30.23;;;23.60;33.00;;;;;;4752698;30;20466;-83
2021/07/23 18:05:55;;;;;;;35.73;33.20;;;23.50;33.40;;;;;;4721748;30;20428;-82
2021/07/23 18:23:12;;;;;;;19.77;18.27;;;23.60;33.00;;;;;;4788588;29;20402;-83
2021/07/23 18:26:48;;;;;;;21.30;19.70;;;23.60;33.00;;;;;;4717376;30;20438;-83
2021/07/23 19:08:10;;;;;;;14.50;13.40;;;23.50;32.70;;;;;;4700242;30;20474;-83
2021/07/23 19:14:56;;;;;;;14.50;13.40;;;23.50;32.90;;;;;;4674649;30;20911;-84
2021/07/23 19:31:53;;;;;;;14.20;12.20;;;23.50;33.10;;;;;;4629970;31;21035;-83
2021/07/23 19:38:43;;;;;;;13.40;12.17;;;23.50;33.50;;;;;;4596774;31;20544;-87
2021/07/23 20:03:10;;;;;;;14.63;13.23;;;23.50;34.60;;;;;;4580875;31;20441;-84
2021/07/23 20:13:19;;;;;;;13.80;12.70;;;23.50;35.30;;;;;;4628244;30;20445;-84
2021/07/23 20:40:48;;;;;;;17.93;15.40;;;23.50;36.20;;;;;;4705068;30;20489;-86
2021/07/23 20:57:38;;;;;;;13.67;12.60;;;23.50;36.50;;;;;;4818148;29;20482;-82
2021/07/23 21:48:12;;;;;;;12.60;11.60;;;23.40;37.30;;;;;;4774531;30;20446;-82
2021/07/23 21:50:38;;;;;;;13.57;12.47;;;23.40;37.30;;;;;;4770258;30;20450;-82
2021/07/23 21:57:24;;;;;;;;;;;;;;;;;;;;;
2021/07/23 22:34:13;;;;;;;;;;;;;;;;;;;;;
2021/07/23 22:37:18;;;;;;;13.03;12.03;;;23.30;37.60;;;;;;4828197;29;20493;-82
2021/07/23 22:40:55;;;;;;;12.03;11.10;;;23.40;37.70;;;;;;4786195;29;20799;-82
2021/07/23 22:44:06;;;;;;;13.77;12.43;;;23.40;37.70;;;;;;4751135;30;20522;-83
2021/07/23 22:47:11;;;;;;;13.33;11.87;;;23.30;37.70;;;;;;4751275;29;20834;-83
2021/07/23 22:49:59;;;;;;;;;;;;;;;;;;;;;
2021/07/23 22:52:33;;;;;;;13.10;12.10;;;23.40;37.80;;;;;;4808122;29;20421;-84
2021/07/23 22:55:31;;;;;;;13.63;12.33;;;23.30;38.40;;;;;;4823219;29;20522;-83
2021/07/23 22:58:45;;;;;;;14.10;13.00;;;23.30;37.70;;;;;;4809420;29;20439;-82
2021/07/23 23:04:58;;;;;;;13.80;12.70;;;23.30;37.90;;;;;;4807042;29;20427;-83
2021/07/23 23:11:57;;;;;;;;;;;;;;;;;;;;;
2021/07/23 23:14:30;;;;;;;14.00;11.53;;;23.30;37.90;;;;;;4755132;30;20486;-82
2021/07/23 23:17:30;;;;;;;12.60;11.60;;;23.30;37.90;;;;;;4769687;30;20512;-82
2021/07/23 23:26:32;;;;;;;12.50;11.50;;;23.30;38.00;;;;;;4808701;29;20454;-82
2021/07/23 23:29:39;;;;;;;13.40;12.20;;;23.30;38.10;;;;;;4826438;29;20449;-81
2021/07/23 23:35:49;;;;;;;12.40;11.50;;;23.30;38.00;;;;;;4781809;29;20443;-80
2021/07/23 23:38:25;;;;;;;12.47;11.37;;;23.30;38.00;;;;;;4815238;29;20633;-81
2021/07/23 23:44:58;;;;;;;12.00;11.10;;;23.30;38.20;;;;;;4792821;29;20858;-83
2021/07/23 23:51:29;;;;;;;;;;;;;;;;;;;;;
2021/07/23 23:54:25;;;;;;;12.37;11.37;;;23.30;38.20;;;;;;4808421;29;20481;-83
2021/07/23 23:57:42;;;;;;;12.53;11.33;;;23.30;38.20;;;;;;4807412;29;20465;-81
